Time,TemperatureF,DewpointF,PressureIn,WindDirection,WindDirectionDegrees,WindSpeedMPH,WindSpeedGustMPH,Humidity,HourlyPrecipIn,Conditions,Clouds,dailyrainin,SoftwareType,DateUTC
2013-06-04 08:02:00,56.0,36.0,-100.00,East,100,4.0,9.0,48,-99.99,,,-99.99,,2013-06-04 13:02:00,
2013-06-04 08:12:00,56.0,36.0,-100.00,East,100,4.0,9.0,48,-99.99,,,-99.99,,2013-06-04 13:12:00,
2013-06-04 08:22:00,56.0,36.0,-100.00,East,100,4.0,9.0,48,-99.99,,,-99.99,,2013-06-04 13:22:00,
2013-06-04 08:32:00,56.0,36.0,-100.00,East,100,4.0,9.0,48,-99.99,,,-99.99,,2013-06-04 13:32:00,
2013-06-04 09:02:00,57.0,39.0,-100.00,East,90,6.0,9.0,52,-99.99,,,-99.99,,2013-06-04 14:02:00,
2013-06-04 09:12:00,57.0,39.0,-100.00,East,90,6.0,9.0,52,-99.99,,,-99.99,,2013-06-04 14:12:00,
2013-06-04 09:22:00,57.0,39.0,-100.00,East,90,6.0,9.0,52,-99.99,,,-99.99,,2013-06-04 14:22:00,
2013-06-04 09:32:00,57.0,39.0,-100.00,East,90,6.0,9.0,52,-99.99,,,-99.99,,2013-06-04 14:32:00,
2013-06-04 10:02:00,58.0,43.0,-100.00,East,100,3.0,6.0,57,-99.99,,,-99.99,,2013-06-04 15:02:00,
2013-06-04 10:12:00,58.0,43.0,-100.00,East,100,3.0,6.0,57,-99.99,,,-99.99,,2013-06-04 15:12:00,
2013-06-04 10:22:00,58.0,43.0,-100.00,East,100,3.0,6.0,57,-99.99,,,-99.99,,2013-06-04 15:22:00,
2013-06-04 10:33:00,58.0,43.0,-100.00,East,100,3.0,6.0,57,-99.99,,,-99.99,,2013-06-04 15:33:00,
2013-06-04 13:02:00,62.0,47.0,-100.00,East,100,4.0,15.0,57,-99.99,,,-99.99,,2013-06-04 18:02:00,
2013-06-04 13:12:00,62.0,47.0,-100.00,East,100,4.0,15.0,57,-99.99,,,-99.99,,2013-06-04 18:12:00,
2013-06-04 13:22:00,62.0,47.0,-100.00,East,100,4.0,15.0,57,-99.99,,,-99.99,,2013-06-04 18:22:00,
2013-06-04 13:32:00,62.0,47.0,-100.00,East,100,4.0,15.0,57,-99.99,,,-99.99,,2013-06-04 18:32:00,
2013-06-04 14:02:00,62.0,46.0,-100.00,ESE,115,4.0,12.0,57,-99.99,,,-99.99,,2013-06-04 19:02:00,
2013-06-04 14:12:00,62.0,46.0,-100.00,ESE,115,4.0,12.0,57,-99.99,,,-99.99,,2013-06-04 19:12:00,
2013-06-04 14:22:00,62.0,46.0,-100.00,ESE,115,4.0,12.0,57,-99.99,,,-99.99,,2013-06-04 19:22:00,
2013-06-04 14:32:00,62.0,46.0,-100.00,ESE,115,4.0,12.0,57,-99.99,,,-99.99,,2013-06-04 19:32:00,
2013-06-04 15:03:00,64.0,45.0,-100.00,SE,145,0.0,0.0,50,-99.99,,,-99.99,,2013-06-04 20:03:00,
2013-06-04 15:12:00,64.0,45.0,-100.00,SE,145,0.0,0.0,50,-99.99,,,-99.99,,2013-06-04 20:12:00,
2013-06-04 15:22:00,64.0,45.0,-100.00,SE,145,0.0,0.0,50,-99.99,,,-99.99,,2013-06-04 20:22:00,
2013-06-04 15:32:00,64.0,45.0,-100.00,SE,145,0.0,0.0,50,-99.99,,,-99.99,,2013-06-04 20:32:00,
2013-06-04 16:02:00,63.0,44.0,-100.00,ESE,110,0.0,0.0,50,-99.99,,,-99.99,,2013-06-04 21:02:00,
2013-06-04 16:12:00,63.0,44.0,-100.00,ESE,110,0.0,0.0,50,-99.99,,,-99.99,,2013-06-04 21:12:00,
2013-06-04 16:22:00,63.0,44.0,-100.00,ESE,110,0.0,0.0,50,-99.99,,,-99.99,,2013-06-04 21:22:00,
2013-06-04 16:33:00,63.0,44.0,-100.00,ESE,110,0.0,0.0,50,-99.99,,,-99.99,,2013-06-04 21:33:00,
2013-06-04 17:02:00,59.0,49.0,-100.00,ESE,110,0.0,0.0,69,-99.99,,,-99.99,,2013-06-04 22:02:00,
2013-06-04 17:13:00,59.0,49.0,-100.00,ESE,110,0.0,0.0,69,-99.99,,,-99.99,,2013-06-04 22:13:00,
2013-06-04 17:22:00,59.0,49.0,-100.00,ESE,110,0.0,0.0,69,-99.99,,,-99.99,,2013-06-04 22:22:00,
2013-06-04 17:32:00,59.0,49.0,-100.00,ESE,110,0.0,0.0,69,-99.99,,,-99.99,,2013-06-04 22:32:00,
2013-06-04 21:02:00,53.0,53.0,-100.00,NNE,30,0.0,0.0,98,-99.99,,,-99.99,,2013-06-05 02:02:00,
2013-06-04 21:12:00,53.0,53.0,-100.00,NNE,30,0.0,0.0,98,-99.99,,,-99.99,,2013-06-05 02:12:00,
2013-06-04 21:22:00,53.0,53.0,-100.00,NNE,30,0.0,0.0,98,-99.99,,,-99.99,,2013-06-05 02:22:00,
2013-06-04 21:32:00,53.0,53.0,-100.00,NNE,30,0.0,0.0,98,-99.99,,,-99.99,,2013-06-05 02:32:00,
2013-06-04 22:02:00,53.0,52.0,-100.00,ENE,75,0.0,0.0,98,-99.99,,,-99.99,,2013-06-05 03:02:00,
2013-06-04 22:12:00,53.0,52.0,-100.00,ENE,75,0.0,0.0,98,-99.99,,,-99.99,,2013-06-05 03:12:00,
2013-06-04 22:22:00,53.0,52.0,-100.00,ENE,75,0.0,0.0,98,-99.99,,,-99.99,,2013-06-05 03:22:00,
2013-06-04 22:33:00,53.0,52.0,-100.00,ENE,75,0.0,0.0,98,-99.99,,,-99.99,,2013-06-05 03:33:00,
2013-06-04 23:02:00,52.0,52.0,-100.00,East,95,0.0,0.0,98,-99.99,,,-99.99,,2013-06-05 04:02:00,
2013-06-04 23:13:00,52.0,52.0,-100.00,East,95,0.0,0.0,98,-99.99,,,-99.99,,2013-06-05 04:13:00,
2013-06-04 23:23:00,52.0,52.0,-100.00,East,95,0.0,0.0,98,-99.99,,,-99.99,,2013-06-05 04:23:00,
2013-06-04 23:33:00,52.0,52.0,-100.00,East,95,0.0,0.0,98,-99.99,,,-99.99,,2013-06-05 04:33:00,